createdAt,value
2023-04-21T00:02:42.201Z,21.6
2023-04-21T00:08:36.577Z,21.4
2023-04-21T00:14:27.576Z,22
2023-04-21T00:20:18.909Z,21.9
2023-04-21T00:26:10.860Z,21.8
2023-04-21T00:31:46.752Z,21.7
2023-04-21T00:37:38.477Z,21.7
2023-04-21T00:43:15.375Z,21.7
2023-04-21T00:49:07.154Z,21.6
2023-04-21T00:54:27.947Z,21.6
2023-04-21T01:00:20.403Z,21.4
2023-04-21T01:05:59.056Z,22
2023-04-21T01:11:34.891Z,21.9
2023-04-21T01:17:26.977Z,21.8
2023-04-21T01:23:18.137Z,21.7
2023-04-21T01:29:09.543Z,21.7
2023-04-21T01:35:01.645Z,21.7
2023-04-21T01:40:37.005Z,21.7
2023-04-21T01:45:58.209Z,21.6
2023-04-21T01:51:35.195Z,21.4
2023-04-21T01:57:11.241Z,22
2023-04-21T02:02:47.944Z,21.9
2023-04-21T02:08:40.687Z,21.8
2023-04-21T02:14:32.032Z,21.7
2023-04-21T02:20:41.124Z,21.7
2023-04-21T02:26:32.868Z,21.7
2023-04-21T02:32:30.566Z,21.6
2023-04-21T02:38:06.975Z,21.6
2023-04-21T02:43:58.851Z,21.5
2023-04-21T02:49:50.741Z,22.1
2023-04-21T02:55:42.437Z,21.9
2023-04-21T03:01:34.845Z,21.8
2023-04-21T03:07:27.436Z,21.8
2023-04-21T03:13:18.899Z,21.8
2023-04-21T03:19:11.904Z,21.7
2023-04-21T03:25:03.589Z,21.7
2023-04-21T03:30:40.248Z,21.5
2023-04-21T03:36:33.067Z,21.7
2023-04-21T03:42:36.244Z,22.1
2023-04-21T03:48:28.583Z,21.9
2023-04-21T03:54:22.543Z,21.8
2023-04-21T04:00:12.955Z,21.8
2023-04-21T04:06:08.666Z,21.8
2023-04-21T04:12:00.521Z,21.7
2023-04-21T04:17:21.181Z,21.7
2023-04-21T04:23:12.605Z,21.4
2023-04-21T04:29:04.572Z,21.9
2023-04-21T04:34:43.559Z,22
2023-04-21T04:40:34.606Z,21.8
2023-04-21T04:46:29.107Z,21.8
2023-04-21T04:52:23.156Z,21.7
2023-04-21T04:58:13.717Z,21.6
2023-04-21T05:04:06.878Z,21.6
2023-04-21T05:09:43.503Z,21.6
2023-04-21T05:15:35.346Z,21.5
2023-04-21T05:21:30.380Z,22.1
2023-04-21T05:27:24.568Z,21.9
2023-04-21T05:33:16.689Z,21.8
2023-04-21T05:39:11.792Z,21.7
2023-04-21T05:45:03.513Z,21.6
2023-04-21T05:50:26.039Z,21.6
2023-04-21T05:55:47.292Z,21.6
2023-04-21T06:01:38.730Z,21.5
2023-04-21T06:07:18.916Z,21.9
2023-04-21T06:12:55.260Z,22
2023-04-21T06:18:46.640Z,21.8
2023-04-21T06:24:22.313Z,21.8
2023-04-21T06:29:59.584Z,21.7
2023-04-21T06:35:38.968Z,21.6
2023-04-21T06:41:30.575Z,21.6
2023-04-21T06:47:23.411Z,21.6
2023-04-21T06:52:58.772Z,21.7
2023-04-21T06:58:37.571Z,22.1
2023-04-21T07:04:31.334Z,21.9
2023-04-21T07:10:23.058Z,21.8
2023-04-21T07:16:14.224Z,21.7
2023-04-21T07:22:06.958Z,21.7
2023-04-21T07:27:58.060Z,21.7
2023-04-21T07:33:33.676Z,21.7
2023-04-21T07:39:26.162Z,21.6
2023-04-21T07:45:16.836Z,22.1
2023-04-21T07:51:08.336Z,22
2023-04-21T07:57:00.427Z,21.8
2023-04-21T08:02:36.756Z,21.8
2023-04-21T08:08:36.100Z,21.8
2023-04-21T08:14:29.079Z,21.7
2023-04-21T08:20:05.626Z,21.6
2023-04-21T08:25:45.395Z,21.8
2023-04-21T08:31:22.586Z,22.1
2023-04-21T08:37:52.298Z,21.9
2023-04-21T08:43:48.064Z,21.8
2023-04-21T08:49:43.229Z,21.8
2023-04-21T08:55:35.325Z,21.8
2023-04-21T09:01:42.844Z,21.8
2023-04-21T09:07:11.236Z,21.7
2023-04-21T09:13:04.317Z,21.8
2023-04-21T09:18:41.033Z,22.1
2023-04-21T09:24:33.422Z,21.9
2023-04-21T09:30:27.260Z,21.9
2023-04-21T09:36:39.524Z,21.8
2023-04-21T09:43:16.813Z,21.8
2023-04-21T09:49:31.132Z,21.8
2023-04-21T09:56:22.706Z,21.9
2023-04-21T10:01:59.405Z,22.1
2023-04-21T10:07:54.793Z,22
2023-04-21T10:13:47.762Z,21.9
2023-04-21T10:19:40.714Z,21.9
2023-04-21T10:25:32.899Z,21.9
2023-04-21T10:31:35.738Z,21.8
2023-04-21T10:37:28.857Z,21.8
2023-04-21T10:43:24.826Z,22.2
2023-04-21T10:49:16.524Z,22.1
2023-04-21T10:55:09.176Z,21.9
2023-04-21T11:01:00.208Z,21.9
2023-04-21T11:06:57.212Z,21.8
2023-04-21T11:12:50.844Z,21.8
2023-04-21T11:18:42.090Z,21.8
2023-04-21T11:24:33.048Z,21.7
2023-04-21T11:30:09.878Z,21.7
2023-04-21T11:36:01.398Z,21.6
2023-04-21T11:41:53.119Z,21.6
2023-04-21T11:47:45.901Z,21.6
2023-04-21T11:53:21.933Z,21.6
2023-04-21T11:59:14.538Z,21.5
2023-04-21T12:05:08.325Z,21.5
2023-04-21T12:10:44.789Z,21.4
2023-04-21T12:16:38.398Z,21.4
2023-04-21T12:22:31.087Z,21.4
2023-04-21T12:28:22.497Z,21.3
2023-04-21T12:34:17.980Z,21.3
2023-04-21T12:40:11.015Z,21.3
2023-04-21T12:46:02.383Z,21.2
2023-04-21T12:57:42.935Z,21.1
2023-04-21T13:03:37.926Z,21
2023-04-21T13:09:30.561Z,21
2023-04-21T13:15:08.058Z,20.9
2023-04-21T13:20:59.513Z,20.9
2023-04-21T13:26:52.830Z,20.9
2023-04-21T13:32:44.851Z,20.8
2023-04-21T13:38:25.498Z,20.8
2023-04-21T13:44:20.078Z,20.8
2023-04-21T13:50:13.139Z,20.8
2023-04-21T13:56:06.441Z,20.7
2023-04-21T14:01:42.838Z,20.7
2023-04-21T14:07:25.778Z,20.6
2023-04-21T14:13:02.545Z,20.6
2023-04-21T14:19:40.835Z,20.6
2023-04-21T14:25:32.429Z,20.6
2023-04-21T14:31:09.365Z,20.5
2023-04-21T14:36:46.265Z,20.5
2023-04-21T14:42:25.449Z,20.4
2023-04-21T14:48:16.537Z,20.4
2023-04-21T14:54:07.933Z,20.4
2023-04-21T15:00:00.326Z,20.4
2023-04-21T15:05:56.522Z,20.4
2023-04-21T15:11:36.579Z,20.4
2023-04-21T15:16:58.028Z,20.4
2023-04-21T15:22:59.812Z,20.3
2023-04-21T15:28:35.532Z,20.3
2023-04-21T15:34:12.436Z,20.3
2023-04-21T15:39:48.143Z,20.3
2023-04-21T15:45:37.764Z,20.3
2023-04-21T15:51:30.784Z,20.3
2023-04-21T15:57:23.063Z,20.3
2023-04-21T16:03:17.381Z,20.3
2023-04-21T16:08:57.664Z,20.3
2023-04-21T16:15:20.449Z,20.3
2023-04-21T16:21:17.439Z,20.3
2023-04-21T16:27:10.640Z,20.3
2023-04-21T16:33:03.133Z,20.2
2023-04-21T16:38:57.807Z,20.2
2023-04-21T16:44:50.095Z,20.2
2023-04-21T16:50:43.477Z,20.2
2023-04-21T16:56:34.747Z,20.2
2023-04-21T17:02:26.355Z,20.2
2023-04-21T17:08:20.172Z,20.2
2023-04-21T17:14:11.034Z,20.1
2023-04-21T17:20:05.242Z,20.1
2023-04-21T17:26:13.752Z,20.1
2023-04-21T17:32:20.185Z,20.1
2023-04-21T17:38:40.159Z,20.1
2023-04-21T17:44:31.851Z,20.1
2023-04-21T17:50:23.627Z,20.1
2023-04-21T17:56:00.277Z,20.1
2023-04-21T18:01:51.833Z,20.1
2023-04-21T18:07:30.201Z,20.1
2023-04-21T18:13:07.704Z,20.1
2023-04-21T18:18:44.722Z,20.1
2023-04-21T18:24:20.887Z,20.1
2023-04-21T18:29:56.524Z,20.1
2023-04-21T18:35:32.374Z,20
2023-04-21T18:40:52.595Z,20
2023-04-21T18:46:14.449Z,20
2023-04-21T18:51:51.312Z,20
2023-04-21T18:57:27.306Z,20
2023-04-21T19:03:04.535Z,20
2023-04-21T19:08:57.777Z,20
2023-04-21T19:15:02.041Z,19.9
2023-04-21T19:20:54.785Z,19.9
2023-04-21T19:26:45.955Z,20.3
2023-04-21T19:32:37.929Z,21
2023-04-21T19:38:30.515Z,21.2
2023-04-21T19:44:21.501Z,21.1
2023-04-21T19:50:13.949Z,21
2023-04-21T19:56:23.162Z,20.8
2023-04-21T20:02:30.245Z,21.2
2023-04-21T20:08:24.333Z,21.4
2023-04-21T20:14:15.696Z,21.3
2023-04-21T20:20:07.414Z,21.2
2023-04-21T20:31:37.588Z,21.1
2023-04-21T20:37:14.002Z,21.7
2023-04-21T20:43:02.902Z,21.6
2023-04-21T20:48:55.440Z,21.4
2023-04-21T20:54:46.803Z,21.3
2023-04-21T21:00:37.737Z,21.3
2023-04-21T21:06:34.290Z,21.2
2023-04-21T21:12:29.045Z,21.7
2023-04-21T21:18:05.039Z,21.9
2023-04-21T21:23:56.727Z,21.7
2023-04-21T21:29:47.264Z,21.6
2023-04-21T21:35:39.518Z,21.6
2023-04-21T21:41:31.616Z,21.5
2023-04-21T21:47:23.890Z,21.5
2023-04-21T21:53:19.447Z,22.1
2023-04-21T21:58:55.627Z,22
2023-04-21T22:04:52.848Z,21.8
2023-04-21T22:10:46.512Z,21.8
2023-04-21T22:16:50.127Z,21.8
2023-04-21T22:22:41.622Z,21.7
2023-04-21T22:28:17.112Z,21.7
2023-04-21T22:34:09.574Z,22.2
2023-04-21T22:40:00.274Z,22
2023-04-21T22:45:51.459Z,21.9
2023-04-21T22:51:44.076Z,21.8
2023-04-21T22:57:35.939Z,21.8
2023-04-21T23:03:29.038Z,21.8
2023-04-21T23:09:06.233Z,21.8
2023-04-21T23:14:57.979Z,22.3
2023-04-21T23:20:50.388Z,22.1
2023-04-21T23:26:42.100Z,22
2023-04-21T23:32:34.012Z,21.9
2023-04-21T23:38:25.813Z,21.9
2023-04-21T23:44:17.573Z,21.8
2023-04-21T23:50:10.472Z,21.8
2023-04-21T23:55:47.397Z,22.3
